»·PEaware :: DAL1092 KLAS-KSAN

DAL1092 :: KLAS-KSAN

FLIGHT INFORMATION

Flight Status: Arrived
Operator:
Delta Air Lines
More flights by this operator :: More flights under this callsign
Pilot: Ryan B. (8502)
Aircraft: BOEING 757-200
(B752)
More flights by this aircraft type
Origin: KLAS McCarran Intl
United States
Destination: KSAN San Diego Intl-Lindbergh
United States
More flights between these airports :: More routes between these airports
Route: +BOACH8 LVELL LUCKI1
File this flight plan on PilotEdge
Remarks:
Altitude:
(Current/Filed)
32,000ft
Speed:
(Current/Filed)
423kts
Departed: 10-May-18 06:00 PM
Arrived: 10-May-18 06:47 PM
Distance/Time
Traveled:
225nm/0:46
Distance/Time
To Go:
Arrived

Flight Plot

Page will automatically refresh every two minutes.

Flight plan parsing failed; only flown route is shown


Map Options




Map Legend


Flown Route
Filed Route
Departure Airport
Arrival Airport
Navaid (VOR, NDB)
Fix

Horizontal Profiles

Position Reports

Time Latitude Longitude Heading Altitude Ground
Speed
10-May-18 17:46 36.079813 -115.139533 355 2077ft 0kts
10-May-18 17:47 36.079813 -115.139533 355 2077ft 0kts
10-May-18 17:48 36.079813 -115.139533 355 2077ft 0kts
10-May-18 17:49 36.079813 -115.139533 355 2077ft 0kts
10-May-18 17:50 36.079813 -115.139533 355 2077ft 0kts
10-May-18 17:51 36.079813 -115.139533 355 2077ft 0kts
10-May-18 17:52 36.079813 -115.139533 355 2077ft 0kts
10-May-18 17:53 36.079813 -115.139533 355 2077ft 0kts
10-May-18 17:54 36.079461 -115.139430 318 2078ft 2kts
10-May-18 17:55 36.079418 -115.138811 227 2076ft 0kts
10-May-18 17:56 36.079463 -115.138757 224 2076ft 0kts
10-May-18 17:57 36.079463 -115.138757 224 2076ft 0kts
10-May-18 17:58 36.079456 -115.138766 224 2076ft 0kts
10-May-18 17:59 36.078232 -115.138500 90 2079ft 20kts
10-May-18 18:00 36.078190 -115.126033 88 2045ft 47kts
10-May-18 18:01 36.077062 -115.121306 165 2041ft 12kts
10-May-18 18:02 36.076390 -115.133230 268 2066ft 127kts
10-May-18 18:03 36.076797 -115.184658 268 4098ft 170kts
10-May-18 18:04 36.065796 -115.249721 214 6282ft 242kts
10-May-18 18:05 35.996629 -115.282041 201 9718ft 281kts
10-May-18 18:06 35.919228 -115.299233 186 12137ft 341kts
10-May-18 18:07 35.816251 -115.301343 176 14707ft 398kts
10-May-18 18:08 35.710952 -115.289587 176 17908ft 417kts
10-May-18 18:09 35.593596 -115.289538 184 20306ft 431kts
10-May-18 18:10 35.471571 -115.294326 184 22965ft 450kts
10-May-18 18:11 35.346065 -115.299293 185 24487ft 459kts
10-May-18 18:12 35.225916 -115.304035 185 26456ft 476kts
10-May-18 18:13 35.091981 -115.309334 185 28111ft 496kts
10-May-18 18:14 34.954937 -115.314632 186 30677ft 485kts
10-May-18 18:15 34.823935 -115.321355 189 31949ft 467kts
10-May-18 18:16 34.701453 -115.362257 204 31948ft 455kts
10-May-18 18:17 34.582332 -115.413996 205 32041ft 455kts
10-May-18 18:18 34.463778 -115.465642 205 32099ft 457kts
10-May-18 18:19 34.344803 -115.517368 204 32098ft 454kts
10-May-18 18:20 34.226629 -115.569263 209 32099ft 452kts
10-May-18 18:21 34.123384 -115.645588 212 32107ft 421kts
10-May-18 18:22 34.015383 -115.704244 206 31328ft 434kts
10-May-18 18:23 33.904536 -115.758234 206 30439ft 434kts
10-May-18 18:24 33.795745 -115.811446 206 28924ft 417kts
10-May-18 18:25 33.689196 -115.861873 206 27430ft 409kts
10-May-18 18:26 33.584812 -115.910624 205 25950ft 402kts
10-May-18 18:27 33.495416 -115.981447 235 24308ft 380kts
10-May-18 18:28 33.434599 -116.082742 237 22511ft 371kts
10-May-18 18:29 33.376136 -116.182809 237 20692ft 364kts
10-May-18 18:30 33.304006 -116.261909 209 19071ft 354kts
10-May-18 18:31 33.217279 -116.312947 209 17261ft 344kts
10-May-18 18:32 33.132948 -116.362314 209 15455ft 334kts
10-May-18 18:33 33.050982 -116.410171 209 13653ft 324kts
10-May-18 18:34 32.977239 -116.466207 222 12143ft 311kts
10-May-18 18:35 32.912055 -116.531699 222 10625ft 302kts
10-May-18 18:36 32.849783 -116.594396 222 9300ft 286kts
10-May-18 18:37 32.795862 -116.659004 224 8151ft 268kts
10-May-18 18:38 32.755023 -116.728439 240 7162ft 251kts
10-May-18 18:39 32.720163 -116.795252 237 6201ft 241kts
10-May-18 18:40 32.693130 -116.864534 249 5267ft 230kts
10-May-18 18:41 32.672826 -116.933271 261 4448ft 210kts
10-May-18 18:42 32.686074 -116.993254 284 3605ft 171kts
10-May-18 18:43 32.698669 -117.043975 284 2651ft 149kts
10-May-18 18:44 32.709116 -117.086674 284 1839ft 123kts
10-May-18 18:45 32.718362 -117.124939 284 1109ft 137kts
10-May-18 18:46 32.727974 -117.164501 285 419ft 125kts
10-May-18 18:47 32.735124 -117.196102 285 22ft 35kts

Navigation Log

Ident Type
Flight plan parsing failed, navigation log unavailable